Gilbertville, IA

10:07 AM CST on December 06, 2016 (GMT -0600)
Washburn | | Change Station

Elev 843 ft 42.41 °N, 92.27 °W | Updated 10 minutes ago

Clear
Clear
28.2 °F
Feels Like 28 °F
N
2.7
Wind Variable Wind from SSE

Today
High -- | Low -- °F
--% Chance of Precip.
Yesterday
High -- | Low -- °F
Precip. -- in
Pressure 29.90 in
Visibility 10.0 miles
Clouds Clear
Windchill 28 °F
Dew Point 21 °F
Humidity 75%
Rainfall 0.05 in
Snow Depth Not available.
7:24 AM 4:36 PM
Waxing Crescent, 43% visible
METAR KALO 061554Z 28014G23KT 10SM CLR M03/M08 A2987 RMK AO2 PK WND 27027/1531 SLP125 T10331078
Pressure 29.90 in
Visibility 10.0 miles
Clouds Clear
Windchill 28 °F
Dew Point 21 °F
Humidity 75%
Rainfall 0.05 in
Snow Depth Not available.
7:24 AM 4:36 PM
Waxing Crescent, 43% visible
METAR KALO 061554Z 28014G23KT 10SM CLR M03/M08 A2987 RMK AO2 PK WND 27027/1531 SLP125 T10331078

10-Day Weather Forecast

Almanac

Astronomy

Dec. 06, 2016 Rise Set
Actual Time
Civil Twilight
Nautical Twilight
Astronomical Twilight
Moon
Length of Visible Light
Length of Day
Tomorrow will be .
, % of the Moon is Illuminated

Today's Extremes

State Highs State Lows

Community

WunderPhotos

Upload Photos

1,955,965 photos uploaded!

WunderBlog® & News

Nearby

Air Quality

  Air Quality AQ Index Pollutant
Not available.

Snow Depth

Station Depth Elevation

Earthquake Activity

City Distance Mag. Time & Date
Minimum magnitude displayed is 2.5.

Coastal Water Temperatures

Place Temperature

Stations

Nearby Weather Stations

Station Location Temp. Windchill Dew Point Humidity Wind Precip. Elev Updated Type
                   

Watches & Warnings

There are currently no watches in effect.